createdAt,value
2023-04-16T00:00:41.829Z,6.87
2023-04-16T00:03:09.022Z,6.89
2023-04-16T00:05:36.077Z,6.89
2023-04-16T00:08:02.457Z,6.89
2023-04-16T00:10:28.928Z,6.92
2023-04-16T00:12:55.429Z,6.94
2023-04-16T00:15:21.805Z,6.97
2023-04-16T00:17:48.192Z,6.97
2023-04-16T00:20:14.563Z,6.99
2023-04-16T00:22:41.172Z,6.89
2023-04-16T00:25:07.948Z,6.97
2023-04-16T00:27:34.376Z,6.90
2023-04-16T00:30:00.854Z,6.88
2023-04-16T00:32:27.262Z,6.87
2023-04-16T00:34:53.741Z,6.86
2023-04-16T00:37:20.445Z,6.89
2023-04-16T00:39:46.880Z,6.87
2023-04-16T00:42:13.339Z,6.75
2023-04-16T00:44:39.731Z,6.64
2023-04-16T00:47:06.074Z,6.70
2023-04-16T00:49:32.531Z,6.76
2023-04-16T00:51:58.875Z,6.77
2023-04-16T00:54:25.308Z,6.80
2023-04-16T00:56:52.409Z,6.81
2023-04-16T00:59:18.784Z,6.83
2023-04-16T01:01:45.304Z,6.86
2023-04-16T01:04:12.396Z,6.91
2023-04-16T01:06:38.961Z,6.84
2023-04-16T01:09:06.035Z,6.80
2023-04-16T01:11:32.636Z,6.79
2023-04-16T01:13:59.143Z,6.81
2023-04-16T01:16:25.539Z,6.83
2023-04-16T01:18:52.065Z,6.83
2023-04-16T01:21:18.558Z,6.73
2023-04-16T01:23:45.098Z,6.76
2023-04-16T01:26:13.688Z,6.72
2023-04-16T01:28:40.268Z,6.77
2023-04-16T01:31:06.880Z,6.84
2023-04-16T01:33:34.255Z,6.85
2023-04-16T01:36:00.658Z,6.85
2023-04-16T01:38:27.329Z,6.86
2023-04-16T01:40:53.732Z,6.88
2023-04-16T01:43:22.363Z,6.91
2023-04-16T01:45:48.748Z,6.91
2023-04-16T01:48:15.264Z,6.95
2023-04-16T01:50:41.692Z,6.98
2023-04-16T01:53:09.118Z,6.96
2023-04-16T01:55:36.494Z,6.96
2023-04-16T01:58:02.898Z,7.03
2023-04-16T02:00:29.263Z,7.18
2023-04-16T02:02:55.793Z,7.15
2023-04-16T02:05:22.341Z,6.97
2023-04-16T02:07:48.785Z,6.87
2023-04-16T02:10:15.247Z,6.92
2023-04-16T02:12:41.601Z,6.94
2023-04-16T02:15:09.067Z,6.96
2023-04-16T02:17:35.574Z,6.99
2023-04-16T02:20:02.329Z,6.99
2023-04-16T02:22:28.782Z,7.02
2023-04-16T02:24:58.070Z,7.05
2023-04-16T02:27:24.402Z,7.09
2023-04-16T02:29:50.775Z,7.12
2023-04-16T02:32:19.497Z,7.11
2023-04-16T02:34:48.380Z,7.12
2023-04-16T02:37:15.122Z,7.13
2023-04-16T02:39:43.096Z,7.19
2023-04-16T02:42:09.494Z,7.21
2023-04-16T02:44:36.015Z,7.28
2023-04-16T02:47:02.479Z,7.25
2023-04-16T02:49:29.567Z,7.04
2023-04-16T02:51:55.975Z,7.10
2023-04-16T02:54:22.428Z,7.06
2023-04-16T02:56:48.931Z,7.17
2023-04-16T02:59:15.486Z,7.12
2023-04-16T03:01:42.020Z,7.15
2023-04-16T03:04:08.456Z,7.17
2023-04-16T03:06:35.395Z,7.19
2023-04-16T03:09:01.817Z,7.18
2023-04-16T03:11:28.286Z,7.18
2023-04-16T03:13:55.252Z,7.14
2023-04-16T03:16:21.897Z,7.07
2023-04-16T03:18:54.269Z,7.09
2023-04-16T03:21:20.834Z,7.15
2023-04-16T03:23:48.731Z,7.11
2023-04-16T03:26:16.230Z,7.17
2023-04-16T03:28:42.692Z,7.26
2023-04-16T03:31:09.328Z,7.26
2023-04-16T03:33:35.717Z,7.26
2023-04-16T03:36:02.088Z,7.29
2023-04-16T03:38:28.478Z,7.16
2023-04-16T03:40:54.915Z,7.13
2023-04-16T03:43:21.359Z,7.13
2023-04-16T03:45:48.260Z,7.18
2023-04-16T03:48:14.634Z,7.27
2023-04-16T03:50:43.429Z,7.31
2023-04-16T03:53:09.889Z,7.34
2023-04-16T03:55:36.269Z,7.32
2023-04-16T03:58:02.855Z,7.34
2023-04-16T04:00:29.253Z,7.34
2023-04-16T04:02:55.895Z,7.33
2023-04-16T04:05:22.788Z,7.30
2023-04-16T04:07:49.174Z,7.35
2023-04-16T04:10:15.998Z,7.34
2023-04-16T04:12:42.478Z,7.34
2023-04-16T04:15:08.844Z,7.27
2023-04-16T04:17:35.321Z,7.39
2023-04-16T04:20:02.277Z,7.34
2023-04-16T04:22:28.829Z,7.21
2023-04-16T04:24:55.273Z,7.15
2023-04-16T04:27:21.740Z,7.14
2023-04-16T04:29:48.182Z,7.12
2023-04-16T04:32:14.541Z,7.15
2023-04-16T04:34:41.361Z,7.17
2023-04-16T04:37:07.853Z,7.22
2023-04-16T04:39:34.312Z,7.25
2023-04-16T04:42:00.755Z,7.26
2023-04-16T04:44:27.455Z,7.29
2023-04-16T04:46:53.862Z,7.30
2023-04-16T04:49:20.304Z,7.32
2023-04-16T04:51:46.682Z,7.32
2023-04-16T04:54:13.020Z,7.34
2023-04-16T04:56:39.415Z,7.34
2023-04-16T04:59:05.848Z,7.26
2023-04-16T05:01:32.722Z,7.25
2023-04-16T05:04:03.443Z,7.24
2023-04-16T05:06:30.092Z,7.30
2023-04-16T05:08:56.581Z,7.34
2023-04-16T05:11:24.453Z,7.36
2023-04-16T05:13:50.929Z,7.38
2023-04-16T05:16:17.419Z,7.33
2023-04-16T05:18:44.106Z,7.35
2023-04-16T05:21:10.592Z,7.36
2023-04-16T05:23:36.957Z,7.38
2023-04-16T05:26:03.681Z,7.38
2023-04-16T05:28:30.341Z,7.40
2023-04-16T05:30:56.753Z,7.41
2023-04-16T05:33:23.204Z,7.44
2023-04-16T05:35:49.695Z,7.46
2023-04-16T05:38:16.150Z,7.45
2023-04-16T05:40:42.490Z,7.48
2023-04-16T05:43:08.934Z,7.52
2023-04-16T05:45:35.325Z,7.51
2023-04-16T05:48:01.804Z,7.51
2023-04-16T05:50:29.280Z,7.50
2023-04-16T05:52:55.728Z,7.48
2023-04-16T05:55:24.236Z,7.46
2023-04-16T05:57:50.570Z,7.44
2023-04-16T06:00:17.304Z,7.44
2023-04-16T06:02:43.749Z,7.43
2023-04-16T06:05:10.190Z,7.43
2023-04-16T06:07:36.736Z,7.39
2023-04-16T06:10:03.336Z,7.28
2023-04-16T06:12:29.709Z,7.34
2023-04-16T06:14:56.089Z,7.39
2023-04-16T06:17:22.536Z,7.44
2023-04-16T06:19:48.925Z,7.44
2023-04-16T06:22:15.392Z,7.50
2023-04-16T06:24:41.763Z,7.48
2023-04-16T06:27:08.150Z,7.49
2023-04-16T06:29:41.174Z,7.46
2023-04-16T06:32:10.705Z,7.44
2023-04-16T06:34:37.660Z,7.46
2023-04-16T06:37:04.479Z,7.42
2023-04-16T06:39:31.193Z,7.43
2023-04-16T06:41:57.615Z,7.45
2023-04-16T06:44:24.114Z,7.50
2023-04-16T06:46:50.509Z,7.54
2023-04-16T06:49:16.931Z,7.59
2023-04-16T06:51:43.333Z,7.61
2023-04-16T06:54:09.783Z,7.66
2023-04-16T06:56:37.343Z,7.65
2023-04-16T06:59:04.056Z,7.63
2023-04-16T07:01:30.790Z,7.65
2023-04-16T07:03:59.861Z,7.67
2023-04-16T07:06:27.326Z,7.66
2023-04-16T07:08:53.941Z,7.57
2023-04-16T07:11:20.502Z,7.53
2023-04-16T07:13:49.229Z,7.53
2023-04-16T07:16:15.966Z,7.52
2023-04-16T07:18:43.394Z,7.29
2023-04-16T07:21:16.167Z,7.27
2023-04-16T07:23:44.297Z,7.33
2023-04-16T07:26:12.114Z,7.41
2023-04-16T07:28:39.636Z,7.52
2023-04-16T07:31:08.605Z,7.65
2023-04-16T07:33:35.087Z,7.67
2023-04-16T07:36:02.850Z,7.72
2023-04-16T07:38:29.228Z,7.83
2023-04-16T07:43:36.722Z,7.99
2023-04-16T07:46:03.190Z,8.00
2023-04-16T07:48:33.137Z,8.10
2023-04-16T07:51:00.552Z,8.14
2023-04-16T07:53:27.033Z,8.14
2023-04-16T07:55:57.219Z,8.18
2023-04-16T07:58:29.122Z,8.15
2023-04-16T08:00:55.889Z,8.16
2023-04-16T08:03:27.651Z,8.20
2023-04-16T08:05:58.034Z,8.22
2023-04-16T08:08:26.832Z,8.25
2023-04-16T08:10:53.233Z,8.31
2023-04-16T08:13:21.717Z,8.34
2023-04-16T08:15:48.104Z,8.36
2023-04-16T08:18:14.604Z,8.38
2023-04-16T08:20:41.052Z,8.40
2023-04-16T08:23:07.581Z,8.44
2023-04-16T08:25:34.882Z,8.49
2023-04-16T08:28:01.273Z,8.51
2023-04-16T08:30:27.646Z,8.51
2023-04-16T08:32:54.087Z,8.53
2023-04-16T08:35:20.978Z,8.54
2023-04-16T08:37:47.321Z,8.58
2023-04-16T08:40:14.367Z,8.62
2023-04-16T08:42:42.730Z,8.68
2023-04-16T08:45:11.424Z,8.76
2023-04-16T08:47:38.278Z,8.83
2023-04-16T08:50:04.735Z,8.86
2023-04-16T08:52:38.710Z,8.89
2023-04-16T08:55:07.186Z,8.94
2023-04-16T08:57:34.631Z,8.98
2023-04-16T09:00:01.105Z,9.04
2023-04-16T09:02:27.623Z,9.02
2023-04-16T09:04:54.422Z,9.08
2023-04-16T09:07:21.312Z,9.15
2023-04-16T09:09:49.780Z,9.11
2023-04-16T09:12:16.171Z,9.07
2023-04-16T09:14:42.543Z,9.01
2023-04-16T09:17:08.958Z,9.08
2023-04-16T09:19:35.345Z,9.05
2023-04-16T09:22:01.754Z,9.06
2023-04-16T09:24:28.392Z,9.13
2023-04-16T09:26:54.988Z,9.19
2023-04-16T09:29:21.472Z,9.26
2023-04-16T09:31:49.367Z,9.28
2023-04-16T09:34:15.800Z,9.34
2023-04-16T09:36:42.145Z,9.35
2023-04-16T09:39:08.704Z,9.29
2023-04-16T09:41:35.241Z,9.34
2023-04-16T09:44:01.636Z,9.38
2023-04-16T09:46:28.270Z,9.39
2023-04-16T09:48:56.796Z,9.45
2023-04-16T09:51:23.192Z,9.53
2023-04-16T09:53:49.571Z,9.54
2023-04-16T09:56:16.233Z,9.54
2023-04-16T09:58:44.974Z,9.56
2023-04-16T10:01:12.382Z,9.64
2023-04-16T10:03:39.054Z,9.68
2023-04-16T10:06:05.807Z,9.59
2023-04-16T10:08:32.311Z,9.56
2023-04-16T10:10:58.719Z,9.56
2023-04-16T10:13:25.105Z,9.53
2023-04-16T10:15:52.467Z,9.64
2023-04-16T10:18:19.060Z,9.72
2023-04-16T10:20:45.447Z,9.80
2023-04-16T10:23:11.786Z,9.87
2023-04-16T10:25:39.181Z,9.98
2023-04-16T10:28:05.532Z,10.14
2023-04-16T10:30:32.096Z,10.18
2023-04-16T10:33:00.558Z,10.25
2023-04-16T10:35:27.255Z,10.37
2023-04-16T10:37:53.876Z,10.47
2023-04-16T10:40:20.319Z,10.50
2023-04-16T10:42:46.674Z,10.28
2023-04-16T10:45:13.067Z,10.39
2023-04-16T10:47:39.531Z,10.36
2023-04-16T10:50:05.961Z,10.36
2023-04-16T10:52:32.407Z,10.38
2023-04-16T10:54:58.749Z,10.35
2023-04-16T10:57:25.117Z,10.20
2023-04-16T10:59:51.470Z,10.19
2023-04-16T11:02:18.209Z,9.96
2023-04-16T11:04:45.223Z,10.05
2023-04-16T11:07:11.730Z,10.05
2023-04-16T11:09:39.568Z,10.13
2023-04-16T11:12:05.955Z,10.20
2023-04-16T11:14:32.307Z,10.20
2023-04-16T11:16:59.186Z,10.27
2023-04-16T11:19:25.813Z,10.27
2023-04-16T11:21:52.163Z,10.34
2023-04-16T11:24:18.706Z,10.37
2023-04-16T11:26:45.069Z,10.47
2023-04-16T11:29:11.651Z,10.57
2023-04-16T11:31:38.213Z,10.56
2023-04-16T11:34:04.748Z,10.57
2023-04-16T11:36:33.768Z,10.52
2023-04-16T11:39:01.314Z,10.48
2023-04-16T11:41:28.813Z,10.43
2023-04-16T11:43:55.339Z,10.41
2023-04-16T11:46:27.374Z,10.38
2023-04-16T11:48:57.324Z,10.33
2023-04-16T11:51:24.353Z,10.20
2023-04-16T11:53:51.822Z,10.19
2023-04-16T11:56:18.226Z,10.13
2023-04-16T11:58:44.597Z,10.17
2023-04-16T12:01:11.252Z,10.15
2023-04-16T12:03:37.959Z,10.18
2023-04-16T12:06:04.546Z,10.16
2023-04-16T12:08:30.934Z,10.17
2023-04-16T12:10:57.398Z,10.22
2023-04-16T12:13:23.789Z,10.11
2023-04-16T12:15:50.624Z,10.05
2023-04-16T12:18:17.106Z,10.06
2023-04-16T12:20:43.533Z,10.04
2023-04-16T12:23:10.302Z,10.06
2023-04-16T12:25:37.014Z,10.05
2023-04-16T12:28:03.405Z,10.05
2023-04-16T12:30:29.915Z,10.07
2023-04-16T12:32:57.970Z,10.10
2023-04-16T12:35:25.455Z,10.12
2023-04-16T12:37:51.806Z,10.09
2023-04-16T12:40:18.314Z,10.11
2023-04-16T12:42:44.703Z,10.14
2023-04-16T12:45:12.218Z,10.11
2023-04-16T12:47:39.356Z,10.14
2023-04-16T12:50:08.598Z,10.15
2023-04-16T12:52:35.207Z,10.14
2023-04-16T12:55:01.672Z,10.12
2023-04-16T12:57:28.238Z,10.13
2023-04-16T12:59:55.631Z,10.07
2023-04-16T13:02:24.419Z,10.09
2023-04-16T13:04:51.114Z,10.08
2023-04-16T13:07:18.006Z,10.12
2023-04-16T13:09:45.421Z,10.05
2023-04-16T13:12:11.886Z,10.00
2023-04-16T13:14:38.379Z,10.00
2023-04-16T13:17:04.752Z,9.99
2023-04-16T13:19:31.087Z,9.96
2023-04-16T13:21:58.555Z,9.97
2023-04-16T13:24:25.840Z,9.97
2023-04-16T13:26:52.322Z,10.01
2023-04-16T13:29:18.796Z,10.04
2023-04-16T13:31:45.248Z,10.07
2023-04-16T13:34:11.683Z,10.05
2023-04-16T13:36:38.073Z,10.06
2023-04-16T13:39:05.513Z,10.05
2023-04-16T13:41:32.045Z,9.72
2023-04-16T13:43:58.596Z,9.55
2023-04-16T13:46:25.273Z,9.32
2023-04-16T13:48:51.852Z,9.07
2023-04-16T13:51:18.412Z,8.92
2023-04-16T13:53:44.770Z,8.86
2023-04-16T13:56:11.305Z,8.87
2023-04-16T13:58:37.725Z,8.79
2023-04-16T14:01:04.292Z,8.87
2023-04-16T14:03:30.694Z,8.97
2023-04-16T14:05:57.097Z,8.89
2023-04-16T14:08:28.513Z,8.85
2023-04-16T14:10:55.749Z,8.98
2023-04-16T14:13:22.154Z,9.07
2023-04-16T14:15:48.910Z,9.17
2023-04-16T14:18:15.339Z,9.24
2023-04-16T14:20:44.128Z,9.29
2023-04-16T14:23:10.486Z,9.21
2023-04-16T14:25:37.038Z,9.09
2023-04-16T14:28:03.387Z,9.20
2023-04-16T14:30:29.949Z,9.26
2023-04-16T14:32:56.705Z,9.30
2023-04-16T14:35:23.224Z,9.35
2023-04-16T14:37:56.873Z,9.39
2023-04-16T14:40:25.738Z,9.43
2023-04-16T14:42:59.440Z,9.47
2023-04-16T14:45:26.228Z,9.50
2023-04-16T14:47:52.752Z,9.41
2023-04-16T14:50:19.188Z,9.45
2023-04-16T14:52:48.435Z,9.47
2023-04-16T14:55:14.767Z,9.49
2023-04-16T14:57:41.400Z,9.48
2023-04-16T15:00:07.816Z,9.49
2023-04-16T15:02:34.470Z,9.49
2023-04-16T15:05:03.396Z,9.52
2023-04-16T15:07:29.799Z,9.55
2023-04-16T15:09:58.199Z,9.62
2023-04-16T15:12:29.883Z,9.63
2023-04-16T15:14:56.394Z,9.67
2023-04-16T15:17:23.143Z,9.69
2023-04-16T15:19:49.687Z,9.71
2023-04-16T15:22:16.133Z,9.75
2023-04-16T15:24:42.755Z,9.77
2023-04-16T15:27:11.188Z,9.80
2023-04-16T15:29:38.696Z,9.82
2023-04-16T15:32:05.588Z,9.73
2023-04-16T15:34:32.306Z,9.73
2023-04-16T15:36:59.140Z,9.66
2023-04-16T15:39:25.644Z,9.65
2023-04-16T15:42:01.164Z,9.44
2023-04-16T15:44:28.836Z,9.40
2023-04-16T15:46:57.394Z,9.29
2023-04-16T15:49:23.915Z,9.34
2023-04-16T15:51:50.488Z,9.39
2023-04-16T15:54:16.972Z,9.39
2023-04-16T15:56:43.312Z,9.41
2023-04-16T15:59:13.090Z,9.39
2023-04-16T16:01:39.558Z,9.38
2023-04-16T16:04:06.058Z,9.33
2023-04-16T16:06:32.464Z,9.27
2023-04-16T16:08:58.812Z,9.22
2023-04-16T16:11:25.160Z,9.22
2023-04-16T16:13:51.542Z,9.28
2023-04-16T16:16:18.011Z,9.26
2023-04-16T16:18:44.588Z,9.25
2023-04-16T16:21:11.367Z,9.25
2023-04-16T16:23:37.757Z,9.24
2023-04-16T16:26:04.169Z,9.23
2023-04-16T16:28:30.581Z,9.24
2023-04-16T16:30:59.775Z,9.25
2023-04-16T16:33:26.170Z,9.24
2023-04-16T16:35:52.558Z,9.23
2023-04-16T16:38:20.188Z,9.22
2023-04-16T16:40:47.809Z,9.22
2023-04-16T16:43:14.402Z,9.20
2023-04-16T16:45:40.826Z,9.20
2023-04-16T16:48:07.254Z,9.19
2023-04-16T16:50:33.677Z,9.16
2023-04-16T16:53:01.112Z,9.18
2023-04-16T16:55:27.491Z,9.15
2023-04-16T16:57:53.999Z,9.17
2023-04-16T17:00:20.473Z,9.14
2023-04-16T17:02:47.401Z,9.12
2023-04-16T17:05:13.971Z,9.15
2023-04-16T17:07:40.715Z,9.16
2023-04-16T17:10:07.620Z,9.16
2023-04-16T17:12:34.118Z,9.17
2023-04-16T17:15:00.715Z,9.19
2023-04-16T17:17:27.239Z,9.21
2023-04-16T17:19:54.934Z,9.23
2023-04-16T17:22:21.862Z,9.24
2023-04-16T17:24:48.734Z,9.25
2023-04-16T17:27:15.430Z,9.27
2023-04-16T17:29:41.979Z,9.25
2023-04-16T17:32:08.500Z,9.25
2023-04-16T17:34:35.422Z,9.23
2023-04-16T17:37:02.902Z,9.22
2023-04-16T17:39:29.603Z,9.19
2023-04-16T17:41:58.663Z,9.19
2023-04-16T17:44:26.449Z,9.18
2023-04-16T17:46:54.683Z,9.17
2023-04-16T17:49:21.145Z,9.15
2023-04-16T17:51:48.054Z,9.12
2023-04-16T17:54:14.727Z,9.11
2023-04-16T17:56:42.234Z,9.14
2023-04-16T17:59:08.881Z,9.15
2023-04-16T18:01:35.324Z,9.17
2023-04-16T18:04:02.075Z,9.18
2023-04-16T18:06:30.830Z,9.19
2023-04-16T18:08:57.505Z,9.19
2023-04-16T18:11:23.998Z,9.20
2023-04-16T18:13:50.386Z,9.21
2023-04-16T18:16:16.984Z,9.22
2023-04-16T18:18:43.383Z,9.18
2023-04-16T18:21:09.817Z,9.18
2023-04-16T18:23:37.429Z,9.15
2023-04-16T18:26:03.807Z,9.14
2023-04-16T18:28:30.720Z,9.15
2023-04-16T18:30:59.150Z,9.15
2023-04-16T18:33:50.062Z,9.12
2023-04-16T18:36:12.867Z,9.13
2023-04-16T18:38:49.486Z,9.11
2023-04-16T18:41:19.647Z,9.09
2023-04-16T18:43:46.122Z,9.02
2023-04-16T18:46:12.652Z,8.91
2023-04-16T18:48:39.073Z,8.82
2023-04-16T18:51:05.835Z,8.74
2023-04-16T18:53:32.174Z,8.75
2023-04-16T18:55:58.665Z,8.76
2023-04-16T18:58:25.081Z,8.72
2023-04-16T19:00:53.457Z,8.74
2023-04-16T19:03:19.947Z,8.69
2023-04-16T19:05:46.618Z,8.78
2023-04-16T19:08:13.331Z,8.81
2023-04-16T19:10:39.675Z,8.81
2023-04-16T19:13:07.019Z,8.83
2023-04-16T19:15:34.908Z,8.79
2023-04-16T19:18:01.533Z,8.77
2023-04-16T19:20:27.973Z,8.76
2023-04-16T19:22:54.300Z,8.75
2023-04-16T19:25:20.784Z,8.74
2023-04-16T19:27:47.294Z,8.72
2023-04-16T19:30:13.870Z,8.70
2023-04-16T19:32:42.559Z,8.69
2023-04-16T19:35:08.969Z,8.71
2023-04-16T19:37:35.576Z,8.66
2023-04-16T19:40:02.033Z,8.61
2023-04-16T19:42:30.529Z,8.59
2023-04-16T19:44:56.919Z,8.58
2023-04-16T19:47:23.304Z,8.60
2023-04-16T19:49:50.000Z,8.62
2023-04-16T19:52:16.711Z,8.55
2023-04-16T19:54:43.247Z,8.54
2023-04-16T19:57:09.666Z,8.55
2023-04-16T19:59:36.350Z,8.55
2023-04-16T20:02:02.876Z,8.52
2023-04-16T20:04:30.897Z,8.52
2023-04-16T20:06:57.653Z,8.53
2023-04-16T20:09:27.909Z,8.53
2023-04-16T20:11:56.552Z,8.52
2023-04-16T20:14:23.131Z,8.53
2023-04-16T20:16:49.637Z,8.53
2023-04-16T20:19:18.181Z,8.54
2023-04-16T20:21:44.645Z,8.52
2023-04-16T20:24:11.314Z,8.53
2023-04-16T20:26:38.234Z,8.54
2023-04-16T20:29:06.782Z,8.54
2023-04-16T20:31:33.271Z,8.54
2023-04-16T20:35:01.099Z,8.53
2023-04-16T20:36:47.771Z,8.54
2023-04-16T20:39:14.896Z,8.54
2023-04-16T20:41:41.344Z,8.55
2023-04-16T20:44:07.787Z,8.57
2023-04-16T20:46:37.586Z,8.56
2023-04-16T20:49:05.247Z,8.53
2023-04-16T20:51:32.022Z,8.54
2023-04-16T20:53:58.562Z,8.55
2023-04-16T20:56:25.080Z,8.54
2023-04-16T20:58:51.609Z,8.54
2023-04-16T21:01:18.385Z,8.50
2023-04-16T21:03:45.501Z,8.54
2023-04-16T21:06:12.108Z,8.52
2023-04-16T21:08:38.827Z,8.51
2023-04-16T21:11:05.589Z,8.50
2023-04-16T21:13:32.519Z,8.51
2023-04-16T21:16:01.487Z,8.50
2023-04-16T21:18:30.785Z,8.51
2023-04-16T21:20:57.709Z,8.50
2023-04-16T21:23:24.344Z,8.51
2023-04-16T21:25:53.470Z,8.49
2023-04-16T21:28:19.986Z,8.51
2023-04-16T21:30:46.664Z,8.50
2023-04-16T21:33:15.655Z,8.50
2023-04-16T21:35:42.054Z,8.46
2023-04-16T21:38:08.500Z,8.42
2023-04-16T21:40:34.890Z,8.38
2023-04-16T21:43:01.276Z,8.37
2023-04-16T21:45:29.389Z,8.38
2023-04-16T21:47:56.879Z,8.41
2023-04-16T21:50:25.580Z,8.39
2023-04-16T21:52:52.238Z,8.38
2023-04-16T21:55:18.891Z,8.28
2023-04-16T21:57:45.252Z,8.29
2023-04-16T22:00:11.614Z,8.33
2023-04-16T22:02:38.245Z,8.31
2023-04-16T22:05:04.659Z,8.30
2023-04-16T22:07:31.044Z,8.30
2023-04-16T22:09:57.475Z,8.21
2023-04-16T22:12:23.873Z,8.25
2023-04-16T22:17:22.123Z,8.23
2023-04-16T22:19:48.492Z,8.25
2023-04-16T22:22:14.893Z,8.26
2023-04-16T22:24:41.270Z,8.27
2023-04-16T22:27:07.679Z,8.29
2023-04-16T22:29:34.039Z,8.27
2023-04-16T22:32:00.995Z,8.28
2023-04-16T22:34:28.519Z,8.32
2023-04-16T22:36:55.149Z,8.31
2023-04-16T22:39:21.585Z,8.25
2023-04-16T22:41:48.337Z,8.29
2023-04-16T22:44:16.897Z,8.31
2023-04-16T22:46:44.408Z,8.30
2023-04-16T22:49:11.107Z,8.31
2023-04-16T22:51:38.194Z,8.29
2023-04-16T22:54:04.524Z,8.31
2023-04-16T22:56:30.883Z,8.30
2023-04-16T22:58:57.577Z,8.29
2023-04-16T23:01:25.377Z,8.29
2023-04-16T23:03:51.908Z,8.31
2023-04-16T23:06:18.553Z,8.24
2023-04-16T23:08:45.098Z,8.27
2023-04-16T23:11:11.875Z,8.27
2023-04-16T23:13:38.376Z,8.23
2023-04-16T23:16:04.922Z,8.21
2023-04-16T23:18:31.375Z,8.21
2023-04-16T23:20:57.931Z,8.20
2023-04-16T23:23:24.514Z,8.17
2023-04-16T23:25:51.109Z,8.16
2023-04-16T23:28:17.543Z,8.16
2023-04-16T23:30:43.975Z,8.15
2023-04-16T23:33:10.354Z,8.13
2023-04-16T23:35:39.017Z,8.16
2023-04-16T23:38:05.515Z,8.16
2023-04-16T23:40:31.905Z,8.19
2023-04-16T23:42:58.294Z,8.16
2023-04-16T23:45:24.728Z,8.16
2023-04-16T23:47:51.177Z,8.16
2023-04-16T23:50:17.610Z,8.15
2023-04-16T23:52:44.312Z,8.16
2023-04-16T23:55:11.570Z,8.17
2023-04-16T23:57:37.946Z,8.16
